| time (UTC) | temp F | wind direction | speed MPH | gust MPH | rain 1hr in | rain 24hr in | rain mn in | humidity % | barometer mb |
| 20260906125628 | 59 | 9 | 1.0 | 4.0 | 0.00 | 0.00 | 0.00 | 39 | 1014.5 |
| 20260906124640 | 61 | 223 | 0.0 | 2.0 | 0.00 | 0.00 | 0.00 | 38 | 1014.5 |
| 20260906123631 | 63 | 223 | 0.0 | 3.0 | 0.00 | 0.00 | 0.00 | 37 | 1014.3 |
| 20260906122621 | 64 | 223 | 0.0 | 0.0 | 0.00 | 0.00 | 0.00 | 36 | 1014.3 |
| 20260906121616 | 65 | 223 | 0.0 | 1.0 | 0.00 | 0.00 | 0.00 | 35 | 1014.3 |
| 20260906120629 | 65 | 223 | 0.0 | 5.0 | 0.00 | 0.00 | 0.00 | 34 | 1014.3 |
| 20260906115653 | 67 | 200 | 0.0 | 2.0 | 0.00 | 0.00 | 0.00 | 32 | 1014.3 |
| 20260906114643 | 68 | 200 | 0.0 | 1.0 | 0.00 | 0.00 | 0.00 | 30 | 1014.3 |
| 20260906113613 | 70 | 200 | 2.0 | 6.0 | 0.00 | 0.00 | 0.00 | 27 | 1014.2 |
| 20260906112628 | 71 | 223 | 4.0 | 8.0 | 0.00 | 0.00 | 0.00 | 26 | 1014.0 |
| 20260906111620 | 71 | 181 | 5.0 | 11.0 | 0.00 | 0.00 | 0.00 | 26 | 1014.0 |
| 20260906110631 | 71 | 165 | 6.0 | 12.0 | 0.00 | 0.00 | 0.00 | 28 | 1013.9 |
| 20260906105634 | 71 | 201 | 5.0 | 13.0 | 0.00 | 0.00 | 0.00 | 30 | 1013.8 |
| 20260906104648 | 72 | 200 | 4.0 | 10.0 | 0.00 | 0.00 | 0.00 | 28 | 1013.7 |
| 20260906103618 | 73 | 171 | 5.0 | 11.0 | 0.00 | 0.00 | 0.00 | 26 | 1013.8 |
| 20260906102629 | 73 | 169 | 5.0 | 11.0 | 0.00 | 0.00 | 0.00 | 24 | 1013.7 |
| 20260906101622 | 73 | 175 | 5.0 | 11.0 | 0.00 | 0.00 | 0.00 | 22 | 1013.5 |
| 20260906100617 | 74 | 182 | 5.0 | 11.0 | 0.00 | 0.00 | 0.00 | 20 | 1013.4 |
| 20260906095620 | 75 | 150 | 9.0 | 18.0 | 0.00 | 0.00 | 0.00 | 17 | 1013.4 |
| 20260906094631 | 75 | 188 | 10.0 | 16.0 | 0.00 | 0.00 | 0.00 | 17 | 1013.2 |
| 20260906093627 | 74 | 203 | 8.0 | 19.0 | 0.00 | 0.00 | 0.00 | 17 | 1013.1 |
| 20260906092618 | 74 | 178 | 8.0 | 18.0 | 0.00 | 0.00 | 0.00 | 18 | 1013.1 |
| 20260906091630 | 70 | 167 | 7.0 | 13.0 | 0.00 | 0.00 | 0.00 | 21 | 1013.1 |
| 20260906090619 | 72 | 198 | 4.0 | 10.0 | 0.00 | 0.00 | 0.00 | 23 | 1013.1 |
| 20260906085624 | 74 | 197 | 9.0 | 14.0 | 0.00 | 0.00 | 0.00 | 18 | 1013.1 |
| 20260906084616 | 75 | 207 | 9.0 | 17.0 | 0.00 | 0.00 | 0.00 | 18 | 1013.0 |
| 20260906083625 | 75 | 227 | 10.0 | 15.0 | 0.00 | 0.00 | 0.00 | 18 | 1013.0 |
| 20260906082616 | 76 | 194 | 12.0 | 19.0 | 0.00 | 0.00 | 0.00 | 17 | 1012.9 |
| 20260906081631 | 76 | 216 | 13.0 | 21.0 | 0.00 | 0.00 | 0.00 | 17 | 1013.0 |
| 20260906080619 | 76 | 216 | 10.0 | 21.0 | 0.00 | 0.00 | 0.00 | 17 | 1013.0 |
| 20260906075622 | 77 | 183 | 12.0 | 18.0 | 0.00 | 0.00 | 0.00 | 16 | 1013.0 |
| 20260906074612 | 77 | 174 | 11.0 | 19.0 | 0.00 | 0.00 | 0.00 | 17 | 1013.0 |
| 20260906073646 | 77 | 221 | 14.0 | 22.0 | 0.00 | 0.00 | 0.00 | 18 | 1013.0 |
| 20260906072615 | 76 | 203 | 8.0 | 16.0 | 0.00 | 0.00 | 0.00 | 19 | 1013.0 |
| 20260906071626 | 76 | 172 | 6.0 | 13.0 | 0.00 | 0.00 | 0.00 | 21 | 1012.9 |
| 20260906070637 | 76 | 194 | 8.0 | 16.0 | 0.00 | 0.00 | 0.00 | 20 | 1012.9 |
| 20260906065620 | 76 | 184 | 6.0 | 14.0 | 0.00 | 0.00 | 0.00 | 21 | 1012.9 |
| 20260906064651 | 76 | 196 | 7.0 | 15.0 | 0.00 | 0.00 | 0.00 | 20 | 1012.7 |
| 20260906063621 | 77 | 200 | 6.0 | 12.0 | 0.00 | 0.00 | 0.00 | 20 | 1012.6 |
| 20260906062630 | 77 | 100 | 8.0 | 14.0 | 0.00 | 0.00 | 0.00 | 20 | 1012.5 |
| 20260906061639 | 77 | 193 | 5.0 | 14.0 | 0.00 | 0.00 | 0.00 | 21 | 1012.3 |
| 20260906060621 | 77 | 142 | 5.0 | 14.0 | 0.00 | 0.00 | 0.00 | 19 | 1012.4 |
| 20260906055619 | 78 | 126 | 5.0 | 13.0 | 0.00 | 0.00 | 0.00 | 19 | 1012.4 |
| 20260906054629 | 78 | 140 | 7.0 | 15.0 | 0.00 | 0.00 | 0.00 | 19 | 1012.5 |
| 20260906053619 | 78 | 113 | 6.0 | 13.0 | 0.00 | 0.00 | 0.00 | 19 | 1012.5 |
| 20260906052613 | 78 | 180 | 6.0 | 15.0 | 0.00 | 0.00 | 0.00 | 17 | 1012.6 |
| 20260906051643 | 78 | 145 | 6.0 | 14.0 | 0.00 | 0.00 | 0.00 | 17 | 1012.6 |
| 20260906050634 | 76 | 158 | 7.0 | 14.0 | 0.00 | 0.00 | 0.00 | 18 | 1012.5 |
| 20260906045614 | 75 | 103 | 6.0 | 11.0 | 0.00 | 0.00 | 0.00 | 19 | 1012.6 |
| 20260906044625 | 75 | 109 | 6.0 | 11.0 | 0.00 | 0.00 | 0.00 | 19 | 1012.6 |
| 20260906043639 | 75 | 110 | 7.0 | 11.0 | 0.00 | 0.00 | 0.00 | 19 | 1012.6 |
| 20260906042648 | 75 | 117 | 7.0 | 10.0 | 0.00 | 0.00 | 0.00 | 19 | 1012.5 |
| 20260906041638 | 75 | 120 | 5.0 | 11.0 | 0.00 | 0.00 | 0.00 | 19 | 1012.5 |
| 20260906040628 | 76 | 92 | 6.0 | 10.0 | 0.00 | 0.00 | 0.00 | 19 | 1012.4 |
| 20260906035614 | 74 | 110 | 5.0 | 12.0 | 0.00 | 0.00 | 0.00 | 20 | 1012.5 |
| 20260906034623 | 68 | 11 | 3.0 | 7.0 | 0.00 | 0.00 | 0.00 | 24 | 1012.5 |
| 20260906033613 | 67 | 17 | 2.0 | 5.0 | 0.00 | 0.00 | 0.00 | 28 | 1012.5 |
| 20260906032622 | 67 | 309 | 1.0 | 2.0 | 0.00 | 0.00 | 0.00 | 27 | 1012.5 |
| 20260906031615 | 66 | 309 | 0.0 | 2.0 | 0.00 | 0.00 | 0.00 | 27 | 1012.5 |
| 20260906030648 | 67 | 309 | 0.0 | 3.0 | 0.00 | 0.00 | 0.00 | 28 | 1012.5 |
| 20260906025629 | 69 | 70 | 0.0 | 0.0 | 0.00 | 0.00 | 0.00 | 26 | 1012.6 |
| 20260906024641 | 71 | 70 | 0.0 | 1.0 | 0.00 | 0.00 | 0.00 | 23 | 1012.4 |
| 20260906023614 | 72 | 70 | 0.0 | 2.0 | 0.00 | 0.00 | 0.00 | 20 | 1012.4 |
| 20260906022626 | 73 | 70 | 0.0 | 4.0 | 0.00 | 0.00 | 0.00 | 19 | 1012.3 |
| 20260906021617 | 74 | 198 | 1.0 | 2.0 | 0.00 | 0.00 | 0.00 | 19 | 1012.4 |
| 20260906020626 | 77 | 198 | 1.0 | 3.0 | 0.00 | 0.00 | 0.00 | 17 | 1012.4 |
| 20260906015614 | 79 | 198 | 0.0 | 1.0 | 0.00 | 0.00 | 0.00 | 17 | 1012.5 |
| 20260906014625 | 80 | 198 | 0.0 | 4.0 | 0.00 | 0.00 | 0.00 | 18 | 1012.6 |
| 20260906013617 | 80 | 199 | 2.0 | 4.0 | 0.00 | 0.00 | 0.00 | 17 | 1012.7 |
| 20260906012612 | 80 | 197 | 3.0 | 6.0 | 0.00 | 0.00 | 0.00 | 19 | 1012.9 |
| 20260906011624 | 81 | 195 | 3.0 | 7.0 | 0.00 | 0.00 | 0.00 | 18 | 1013.0 |
| 20260906010615 | 82 | 196 | 3.0 | 7.0 | 0.00 | 0.00 | 0.00 | 17 | 1013.1 |
| 20260906005618 | 82 | 197 | 4.0 | 9.0 | 0.00 | 0.00 | 0.00 | 17 | 1013.1 |
| 20260906004614 | 82 | 190 | 4.0 | 10.0 | 0.00 | 0.00 | 0.00 | 16 | 1013.2 |
| 20260906003625 | 82 | 204 | 5.0 | 10.0 | 0.00 | 0.00 | 0.00 | 17 | 1013.2 |
| 20260906002638 | 82 | 179 | 6.0 | 11.0 | 0.00 | 0.00 | 0.00 | 17 | 1013.3 |
| 20260906001628 | 83 | 197 | 6.0 | 13.0 | 0.00 | 0.00 | 0.00 | 17 | 1013.3 |
| 20260906000624 | 83 | 194 | 7.0 | 14.0 | 0.00 | 0.00 | 0.00 | 16 | 1013.4 |
| 20260905235646 | 83 | 179 | 10.0 | 17.0 | 0.00 | 0.00 | 0.00 | 16 | 1013.4 |
| 20260905234615 | 83 | 168 | 9.0 | 13.0 | 0.00 | 0.00 | 0.00 | 16 | 1013.4 |
| 20260905233623 | 84 | 208 | 8.0 | 17.0 | 0.00 | 0.00 | 0.00 | 17 | 1013.5 |
| 20260905232612 | 84 | 190 | 10.0 | 17.0 | 0.00 | 0.00 | 0.00 | 17 | 1013.5 |
| 20260905231626 | 84 | 201 | 9.0 | 20.0 | 0.00 | 0.00 | 0.00 | 15 | 1013.5 |
| 20260905230617 | 84 | 200 | 9.0 | 17.0 | 0.00 | 0.00 | 0.00 | 16 | 1013.5 |
| 20260905225619 | 84 | 190 | 9.0 | 18.0 | 0.00 | 0.00 | 0.00 | 16 | 1013.5 |
| 20260905224627 | 85 | 195 | 10.0 | 16.0 | 0.00 | 0.00 | 0.00 | 15 | 1013.6 |
| 20260905223623 | 84 | 215 | 9.0 | 16.0 | 0.00 | 0.00 | 0.00 | 15 | 1013.7 |
| 20260905222613 | 84 | 204 | 9.0 | 14.0 | 0.00 | 0.00 | 0.00 | 15 | 1013.7 |
| 20260905221622 | 84 | 184 | 6.0 | 17.0 | 0.00 | 0.00 | 0.00 | 17 | 1013.8 |
| 20260905220618 | 84 | 187 | 12.0 | 21.0 | 0.00 | 0.00 | 0.00 | 15 | 1014.0 |
| 20260905215620 | 84 | 234 | 7.0 | 16.0 | 0.00 | 0.00 | 0.00 | 15 | 1014.1 |
| 20260905214631 | 84 | 188 | 9.0 | 15.0 | 0.00 | 0.00 | 0.00 | 16 | 1014.1 |
| 20260905213620 | 84 | 180 | 8.0 | 17.0 | 0.00 | 0.00 | 0.00 | 15 | 1014.3 |
| 20260905212614 | 84 | 214 | 10.0 | 18.0 | 0.00 | 0.00 | 0.00 | 16 | 1014.3 |
| 20260905211647 | 83 | 194 | 9.0 | 19.0 | 0.00 | 0.00 | 0.00 | 18 | 1014.5 |
| 20260905210617 | 83 | 201 | 9.0 | 15.0 | 0.00 | 0.00 | 0.00 | 16 | 1014.6 |
| 20260905205619 | 83 | 209 | 6.0 | 12.0 | 0.00 | 0.00 | 0.00 | 18 | 1014.6 |
| 20260905204613 | 83 | 213 | 7.0 | 15.0 | 0.00 | 0.00 | 0.00 | 16 | 1014.8 |
| 20260905203622 | 82 | 211 | 6.0 | 14.0 | 0.00 | 0.00 | 0.00 | 18 | 1014.8 |
| 20260905202612 | 82 | 217 | 9.0 | 14.0 | 0.00 | 0.00 | 0.00 | 17 | 1015.1 |
| 20260905201621 | 82 | 180 | 10.0 | 14.0 | 0.00 | 0.00 | 0.00 | 17 | 1015.2 |
| 20260905200616 | 81 | 210 | 7.0 | 12.0 | 0.00 | 0.00 | 0.00 | 19 | 1015.2 |
| 20260905195619 | 81 | 220 | 6.0 | 13.0 | 0.00 | 0.00 | 0.00 | 18 | 1015.4 |
| 20260905194631 | 81 | 203 | 8.0 | 14.0 | 0.00 | 0.00 | 0.00 | 19 | 1015.6 |
| 20260905193622 | 81 | 191 | 6.0 | 12.0 | 0.00 | 0.00 | 0.00 | 20 | 1015.6 |
| 20260905192617 | 80 | 124 | 8.0 | 14.0 | 0.00 | 0.00 | 0.00 | 20 | 1015.7 |
| 20260905191629 | 80 | 203 | 8.0 | 14.0 | 0.00 | 0.00 | 0.00 | 20 | 1015.8 |
| 20260905190640 | 80 | 176 | 7.0 | 14.0 | 0.00 | 0.00 | 0.00 | 20 | 1015.9 |
| 20260905185643 | 79 | 161 | 8.0 | 18.0 | 0.00 | 0.00 | 0.00 | 21 | 1015.9 |
| 20260905184617 | 79 | 207 | 8.0 | 14.0 | 0.00 | 0.00 | 0.00 | 21 | 1016.1 |
| 20260905183628 | 79 | 240 | 7.0 | 10.0 | 0.00 | 0.00 | 0.00 | 21 | 1016.2 |
| 20260905182619 | 78 | 224 | 5.0 | 11.0 | 0.00 | 0.00 | 0.00 | 20 | 1016.3 |
| 20260905181651 | 78 | 235 | 3.0 | 11.0 | 0.00 | 0.00 | 0.00 | 21 | 1016.4 |
| 20260905180629 | 78 | 218 | 8.0 | 15.0 | 0.00 | 0.00 | 0.00 | 23 | 1016.5 |
| 20260905175616 | 76 | 192 | 6.0 | 10.0 | 0.00 | 0.00 | 0.00 | 23 | 1016.6 |
| 20260905174626 | 74 | 227 | 2.0 | 7.0 | 0.00 | 0.00 | 0.00 | 29 | 1016.7 |
| 20260905173617 | 74 | 203 | 3.0 | 9.0 | 0.00 | 0.00 | 0.00 | 30 | 1016.7 |
| 20260905172626 | 72 | 229 | 1.0 | 5.0 | 0.00 | 0.00 | 0.00 | 32 | 1016.8 |
| 20260905171640 | 71 | 309 | 1.0 | 4.0 | 0.00 | 0.00 | 0.00 | 34 | 1016.7 |
| 20260905170630 | 69 | 350 | 1.0 | 5.0 | 0.00 | 0.00 | 0.00 | 37 | 1016.8 |
| 20260905165612 | 68 | 341 | 1.0 | 4.0 | 0.00 | 0.00 | 0.00 | 39 | 1016.8 |
| 20260905164621 | 67 | 355 | 4.0 | 6.0 | 0.00 | 0.00 | 0.00 | 42 | 1016.9 |
| 20260905163616 | 66 | 20 | 3.0 | 8.0 | 0.00 | 0.00 | 0.00 | 43 | 1016.9 |
| 20260905162626 | 65 | 43 | 3.0 | 8.0 | 0.00 | 0.00 | 0.00 | 46 | 1016.8 |
| 20260905161616 | 64 | 12 | 4.0 | 9.0 | 0.00 | 0.00 | 0.00 | 48 | 1016.9 |
| 20260905160631 | 63 | 24 | 4.0 | 9.0 | 0.00 | 0.00 | 0.00 | 49 | 1016.9 |
| 20260905155613 | 61 | 11 | 3.0 | 9.0 | 0.00 | 0.00 | 0.00 | 52 | 1017.0 |
| 20260905154623 | 60 | 355 | 4.0 | 10.0 | 0.00 | 0.00 | 0.00 | 55 | 1016.9 |
| 20260905153631 | 59 | 349 | 2.0 | 9.0 | 0.00 | 0.00 | 0.00 | 56 | 1016.9 |
| 20260905152625 | 59 | 355 | 6.0 | 10.0 | 0.00 | 0.00 | 0.00 | 56 | 1016.9 |
| 20260905151615 | 58 | 343 | 3.0 | 8.0 | 0.00 | 0.00 | 0.00 | 58 | 1016.9 |
| 20260905150625 | 57 | 32 | 4.0 | 11.0 | 0.00 | 0.00 | 0.00 | 59 | 1016.9 |
| 20260905145626 | 56 | 16 | 7.0 | 13.0 | 0.00 | 0.00 | 0.00 | 60 | 1017.0 |
| 20260905144620 | 56 | 17 | 4.0 | 12.0 | 0.00 | 0.00 | 0.00 | 61 | 1016.9 |
| 20260905143629 | 55 | 311 | 3.0 | 10.0 | 0.00 | 0.00 | 0.00 | 63 | 1016.9 |
| 20260905142619 | 54 | 351 | 1.0 | 10.0 | 0.00 | 0.00 | 0.00 | 65 | 1016.8 |
| 20260905141629 | 53 | 351 | 3.0 | 10.0 | 0.00 | 0.00 | 0.00 | 67 | 1016.6 |
| 20260905140625 | 53 | 20 | 6.0 | 13.0 | 0.00 | 0.00 | 0.00 | 68 | 1016.6 |
| 20260905135627 | 52 | 32 | 4.0 | 10.0 | 0.00 | 0.00 | 0.00 | 70 | 1016.6 |
| 20260905134639 | 51 | 355 | 2.0 | 6.0 | 0.00 | 0.00 | 0.00 | 71 | 1016.5 |
| 20260905133628 | 51 | 12 | 1.0 | 4.0 | 0.00 | 0.00 | 0.00 | 70 | 1016.3 |
| 20260905132623 | 50 | 12 | 0.0 | 1.0 | 0.00 | 0.00 | 0.00 | 70 | 1016.2 |
| 20260905131612 | 51 | 12 | 0.0 | 3.0 | 0.00 | 0.00 | 0.00 | 69 | 1016.1 |
| 20260905130643 | 51 | 12 | 1.0 | 5.0 | 0.00 | 0.00 | 0.00 | 69 | 1015.9 |